createdAt,value
2018-09-28T00:01:17.345Z,4.20
2018-09-28T00:03:46.320Z,3.93
2018-09-28T00:06:15.274Z,3.70
2018-09-28T00:08:44.227Z,4.00
2018-09-28T00:11:13.209Z,3.50
2018-09-28T00:13:42.172Z,4.43
2018-09-28T00:16:11.120Z,3.40
2018-09-28T00:18:40.077Z,3.10
2018-09-28T00:21:09.200Z,3.30
2018-09-28T00:23:38.512Z,3.20
2018-09-28T00:26:07.831Z,3.10
2018-09-28T00:28:36.739Z,2.97
2018-09-28T00:31:05.711Z,3.40
2018-09-28T00:33:34.885Z,4.03
2018-09-28T00:36:03.940Z,3.40
2018-09-28T00:38:32.899Z,3.67
2018-09-28T00:41:02.045Z,3.43
2018-09-28T00:43:30.994Z,3.60
2018-09-28T00:46:00.425Z,3.70
2018-09-28T00:48:29.449Z,3.57
2018-09-28T00:50:58.481Z,3.60
2018-09-28T00:53:27.563Z,3.77
2018-09-28T00:55:56.533Z,3.40
2018-09-28T00:58:25.574Z,3.70
2018-09-28T01:00:54.537Z,3.77
2018-09-28T01:03:23.525Z,4.20
2018-09-28T01:05:52.550Z,4.20
2018-09-28T01:08:21.551Z,3.80
2018-09-28T01:10:50.503Z,4.17
2018-09-28T01:13:19.479Z,3.90
2018-09-28T01:15:48.738Z,3.60
2018-09-28T01:18:17.704Z,3.53
2018-09-28T01:20:46.687Z,4.60
2018-09-28T01:23:15.672Z,4.33
2018-09-28T01:25:44.639Z,4.60
2018-09-28T01:28:13.615Z,4.03
2018-09-28T01:30:42.584Z,4.30
2018-09-28T01:33:11.578Z,4.30
2018-09-28T01:35:40.589Z,4.43
2018-09-28T01:38:09.568Z,4.40
2018-09-28T01:40:38.564Z,4.67
2018-09-28T01:43:07.559Z,4.10
2018-09-28T01:45:36.558Z,4.73
2018-09-28T01:48:05.531Z,4.77
2018-09-28T01:50:34.745Z,4.27
2018-09-28T01:53:03.813Z,5.13
2018-09-28T01:55:33.013Z,5.00
2018-09-28T01:58:01.965Z,4.90
2018-09-28T02:00:31.697Z,4.53
2018-09-28T02:03:00.666Z,4.97
2018-09-28T02:05:29.923Z,4.87
2018-09-28T02:07:59.123Z,5.27
2018-09-28T02:10:28.097Z,5.93
2018-09-28T02:12:57.046Z,5.60
2018-09-28T02:15:26.223Z,5.87
2018-09-28T02:17:55.210Z,5.80
2018-09-28T02:20:24.370Z,5.60
2018-09-28T02:22:53.318Z,5.97
2018-09-28T02:25:22.278Z,5.80
2018-09-28T02:27:51.242Z,6.83
2018-09-28T02:30:20.536Z,6.17
2018-09-28T02:32:49.690Z,5.50
2018-09-28T02:35:18.649Z,7.17
2018-09-28T02:37:47.591Z,6.60
2018-09-28T02:40:16.828Z,6.50
2018-09-28T02:42:45.781Z,6.97
2018-09-28T02:45:14.886Z,6.67
2018-09-28T02:47:43.841Z,7.07
2018-09-28T02:50:12.805Z,7.70
2018-09-28T02:52:41.761Z,7.57
2018-09-28T02:55:10.734Z,7.43
2018-09-28T02:57:39.738Z,8.60
2018-09-28T03:00:08.907Z,8.53
2018-09-28T03:02:37.846Z,8.37
2018-09-28T03:05:06.816Z,8.20
2018-09-28T03:07:35.774Z,9.30
2018-09-28T03:10:04.915Z,9.20
2018-09-28T03:12:34.061Z,7.57
2018-09-28T03:15:03.034Z,8.20
2018-09-28T03:17:32.438Z,8.33
2018-09-28T03:20:01.631Z,8.97
2018-09-28T03:22:30.903Z,9.23
2018-09-28T03:24:59.991Z,8.43
2018-09-28T03:27:29.196Z,7.70
2018-09-28T03:29:58.153Z,8.77
2018-09-28T03:32:27.139Z,8.23
2018-09-28T03:34:56.390Z,8.53
2018-09-28T03:37:25.527Z,9.30
2018-09-28T03:39:54.695Z,9.10
2018-09-28T03:42:24.026Z,8.27
2018-09-28T03:44:53.010Z,8.30
2018-09-28T03:47:22.000Z,8.77
2018-09-28T03:49:51.028Z,8.60
2018-09-28T03:52:19.978Z,8.23
2018-09-28T03:54:49.023Z,9.10
2018-09-28T03:57:18.234Z,8.60
2018-09-28T03:59:47.206Z,8.37
2018-09-28T04:02:16.214Z,9.10
2018-09-28T04:04:45.363Z,9.93
2018-09-28T04:07:14.632Z,8.73
2018-09-28T04:09:43.786Z,9.17
2018-09-28T04:12:13.087Z,9.03
2018-09-28T04:14:42.090Z,13.33
2018-09-28T04:17:11.066Z,9.40
2018-09-28T04:19:40.058Z,9.77
2018-09-28T04:22:09.486Z,9.33
2018-09-28T04:24:38.702Z,9.90
2018-09-28T04:27:07.988Z,9.93
2018-09-28T04:29:37.273Z,9.57
2018-09-28T04:32:06.743Z,10.97
2018-09-28T04:34:35.735Z,9.23
2018-09-28T04:37:05.252Z,10.50
2018-09-28T04:39:34.259Z,10.27
2018-09-28T04:42:03.249Z,9.93
2018-09-28T04:44:32.523Z,10.23
2018-09-28T04:47:01.545Z,10.53
2018-09-28T04:49:31.338Z,10.33
2018-09-28T04:52:00.334Z,11.80
2018-09-28T04:54:29.499Z,9.63
2018-09-28T04:56:58.523Z,9.43
2018-09-28T04:59:27.760Z,11.00
2018-09-28T05:01:56.806Z,10.70
2018-09-28T05:04:26.035Z,9.97
2018-09-28T05:06:55.004Z,10.67
2018-09-28T05:09:24.222Z,10.70
2018-09-28T05:11:53.427Z,11.17
2018-09-28T05:14:22.474Z,10.33
2018-09-28T05:16:51.706Z,10.10
2018-09-28T05:19:20.846Z,11.27
2018-09-28T05:21:49.800Z,11.70
2018-09-28T05:24:18.763Z,11.13
2018-09-28T05:26:47.782Z,10.40
2018-09-28T05:29:16.993Z,9.73
2018-09-28T05:31:46.384Z,9.60
2018-09-28T05:34:15.386Z,9.83
2018-09-28T05:36:44.342Z,9.80
2018-09-28T05:39:13.393Z,9.77
2018-09-28T05:41:42.570Z,8.60
2018-09-28T05:44:11.757Z,8.30
2018-09-28T05:46:40.768Z,9.73
2018-09-28T05:49:09.818Z,9.50
2018-09-28T05:51:38.815Z,9.47
2018-09-28T05:54:07.946Z,9.43
2018-09-28T05:56:38.075Z,11.50
2018-09-28T05:59:12.486Z,10.30
2018-09-28T06:01:46.766Z,11.13
2018-09-28T06:04:21.206Z,12.30
2018-09-28T06:06:50.538Z,9.70
2018-09-28T06:09:19.967Z,9.33
2018-09-28T06:11:48.949Z,9.00
2018-09-28T06:14:17.955Z,8.30
2018-09-28T06:16:47.102Z,6.97
2018-09-28T06:19:16.374Z,7.53
2018-09-28T06:21:45.412Z,6.40
2018-09-28T06:24:14.806Z,6.03
2018-09-28T06:26:43.686Z,5.20
2018-09-28T06:29:12.702Z,5.80
2018-09-28T06:31:41.873Z,6.47
2018-09-28T06:34:11.472Z,4.17
2018-09-28T06:36:40.487Z,4.73
2018-09-28T06:39:10.079Z,5.70
2018-09-28T06:41:39.125Z,3.80
2018-09-28T06:44:08.118Z,3.30
2018-09-28T06:46:37.162Z,3.77
2018-09-28T06:49:06.156Z,2.80
2018-09-28T06:51:35.181Z,2.00
2018-09-28T06:54:04.812Z,2.03
2018-09-28T06:56:34.197Z,2.30
2018-09-28T06:59:03.287Z,2.60
2018-09-28T07:01:32.336Z,2.37
2018-09-28T07:04:01.344Z,1.50
2018-09-28T07:06:30.327Z,1.33
2018-09-28T07:08:59.661Z,1.10
2018-09-28T07:11:28.685Z,1.50
2018-09-28T07:13:58.106Z,1.43
2018-09-28T07:16:27.096Z,1.37
2018-09-28T07:18:56.258Z,1.63
2018-09-28T07:21:25.428Z,1.90
2018-09-28T07:23:54.723Z,1.50
2018-09-28T07:26:23.731Z,1.93
2018-09-28T07:28:52.867Z,1.30
2018-09-28T07:31:21.845Z,1.87
2018-09-28T07:33:51.059Z,2.03
2018-09-28T07:36:20.224Z,1.40
2018-09-28T07:38:49.120Z,1.63
2018-09-28T07:41:18.660Z,2.00
2018-09-28T07:43:47.621Z,1.87
2018-09-28T07:46:16.588Z,2.23
2018-09-28T07:48:46.726Z,1.77
2018-09-28T07:51:15.723Z,2.97
2018-09-28T07:53:45.044Z,3.43
2018-09-28T07:56:14.691Z,2.50
2018-09-28T07:58:43.663Z,1.90
2018-09-28T08:01:12.640Z,1.97
2018-09-28T08:03:41.638Z,2.30
2018-09-28T08:06:10.605Z,2.40
2018-09-28T08:08:39.799Z,2.57
2018-09-28T08:11:09.767Z,1.80
2018-09-28T08:13:38.768Z,2.27
2018-09-28T08:16:08.163Z,2.40
2018-09-28T08:18:37.158Z,2.73
2018-09-28T08:21:06.202Z,2.60
2018-09-28T08:23:35.400Z,2.70
2018-09-28T08:26:04.614Z,2.53
2018-09-28T08:28:33.726Z,2.40
2018-09-28T08:31:02.815Z,1.63
2018-09-28T08:40:27.204Z,2.13
2018-09-28T08:42:56.194Z,2.70
2018-09-28T08:45:25.214Z,2.03
2018-09-28T08:47:55.067Z,2.37
2018-09-28T08:50:24.111Z,1.70
2018-09-28T08:52:53.349Z,3.03
2018-09-28T08:55:22.356Z,3.30
2018-09-28T08:57:51.343Z,3.23
2018-09-28T09:00:20.322Z,3.10
2018-09-28T09:02:49.296Z,4.17
2018-09-28T09:05:18.509Z,2.87
2018-09-28T09:07:47.811Z,3.17
2018-09-28T09:10:17.048Z,6.33
2018-09-28T09:12:46.012Z,5.03
2018-09-28T09:15:15.068Z,7.77
2018-09-28T09:17:44.309Z,1.90
2018-09-28T09:20:13.651Z,3.03
2018-09-28T09:22:42.866Z,5.83
2018-09-28T09:25:11.859Z,3.97
2018-09-28T09:27:41.068Z,2.47
2018-09-28T09:30:10.322Z,2.57
2018-09-28T09:32:39.482Z,1.70
2018-09-28T09:35:08.712Z,7.83
2018-09-28T09:37:37.792Z,1.73
2018-09-28T09:40:06.905Z,7.17
2018-09-28T09:42:35.936Z,3.30
2018-09-28T09:45:04.929Z,3.23
2018-09-28T09:47:34.219Z,4.97
2018-09-28T09:50:03.347Z,3.50
2018-09-28T09:52:32.445Z,2.80
2018-09-28T09:55:01.503Z,2.33
2018-09-28T09:57:30.482Z,1.73
2018-09-28T09:59:59.778Z,2.00
2018-09-28T10:02:34.230Z,1.70
2018-09-28T10:05:03.324Z,2.10
2018-09-28T10:07:32.315Z,1.87
2018-09-28T10:10:01.303Z,1.90
2018-09-28T10:12:30.570Z,2.63
2018-09-28T10:14:59.457Z,2.03
2018-09-28T10:17:28.558Z,1.80
2018-09-28T10:19:57.630Z,1.57
2018-09-28T10:22:26.881Z,2.37
2018-09-28T10:24:56.008Z,1.57
2018-09-28T10:27:25.115Z,1.50
2018-09-28T10:29:54.348Z,1.37
2018-09-28T10:32:23.322Z,10.20
2018-09-28T10:34:52.410Z,12.97
2018-09-28T10:37:21.353Z,5.03
2018-09-28T10:39:50.537Z,3.27
2018-09-28T10:42:19.479Z,1.87
2018-09-28T10:44:48.497Z,2.90
2018-09-28T10:47:17.594Z,2.17
2018-09-28T10:49:46.941Z,4.57
2018-09-28T10:52:16.146Z,3.10
2018-09-28T10:54:45.155Z,3.20
2018-09-28T10:57:14.108Z,3.03
2018-09-28T10:59:43.133Z,2.03
2018-09-28T11:02:12.391Z,1.53
2018-09-28T11:04:41.371Z,1.70
2018-09-28T11:07:10.647Z,6.33
2018-09-28T11:09:39.726Z,1.50
2018-09-28T11:12:08.685Z,2.63
2018-09-28T11:14:37.940Z,2.07
2018-09-28T11:17:06.996Z,2.10
2018-09-28T11:19:35.995Z,1.60
2018-09-28T11:22:05.210Z,1.53
2018-09-28T11:24:34.186Z,1.60
2018-09-28T11:27:03.197Z,1.43
2018-09-28T11:29:32.587Z,1.93
2018-09-28T11:32:01.794Z,2.60
2018-09-28T11:34:31.091Z,2.20
2018-09-28T11:37:00.193Z,2.57
2018-09-28T11:39:29.467Z,3.33
2018-09-28T11:41:58.662Z,2.70
2018-09-28T11:44:27.806Z,1.30
2018-09-28T11:46:56.984Z,2.30
2018-09-28T11:49:25.953Z,2.23
2018-09-28T11:51:54.967Z,1.70
2018-09-28T11:54:24.006Z,1.83
2018-09-28T11:56:53.368Z,1.43
2018-09-28T11:59:22.381Z,1.30
2018-09-28T12:01:51.709Z,1.37
2018-09-28T12:04:21.101Z,1.80
2018-09-28T12:06:50.382Z,1.80
2018-09-28T12:09:19.691Z,1.30
2018-09-28T12:11:49.033Z,1.53
2018-09-28T12:14:18.144Z,1.20
2018-09-28T12:16:47.443Z,1.30
2018-09-28T12:19:16.405Z,1.43
2018-09-28T12:21:45.983Z,1.37
2018-09-28T12:24:15.651Z,1.60
2018-09-28T12:26:44.790Z,1.60
2018-09-28T12:29:14.068Z,1.00
2018-09-28T12:31:43.064Z,1.30
2018-09-28T12:34:12.201Z,2.50
2018-09-28T12:36:41.218Z,1.77
2018-09-28T12:39:11.770Z,1.90
2018-09-28T12:41:41.465Z,1.30
2018-09-28T12:44:10.581Z,1.90
2018-09-28T12:46:39.633Z,2.93
2018-09-28T12:49:08.950Z,1.73
2018-09-28T12:51:38.247Z,1.70
2018-09-28T12:54:07.421Z,1.40
2018-09-28T12:56:36.638Z,1.47
2018-09-28T12:59:05.819Z,1.40
2018-09-28T13:01:35.180Z,1.20
2018-09-28T13:04:04.182Z,1.20
2018-09-28T13:06:33.507Z,1.20
2018-09-28T13:09:02.606Z,1.27
2018-09-28T13:11:31.745Z,1.00
2018-09-28T13:14:00.779Z,1.20
2018-09-28T13:16:29.719Z,1.10
2018-09-28T13:18:59.246Z,1.17
2018-09-28T13:21:28.345Z,1.60
2018-09-28T13:23:58.257Z,1.40
2018-09-28T13:26:27.719Z,1.33
2018-09-28T13:28:56.715Z,1.73
2018-09-28T13:31:26.620Z,5.50
2018-09-28T13:33:55.631Z,2.80
2018-09-28T13:36:24.999Z,4.27
2018-09-28T13:38:54.260Z,3.30
2018-09-28T13:41:24.049Z,1.70
2018-09-28T13:43:53.079Z,1.80
2018-09-28T13:46:22.525Z,1.57
2018-09-28T13:48:51.907Z,1.83
2018-09-28T13:51:21.275Z,1.30
2018-09-28T13:53:50.353Z,1.67
2018-09-28T13:56:19.330Z,1.40
2018-09-28T13:58:48.375Z,1.60
2018-09-28T14:01:17.341Z,1.33
2018-09-28T14:03:46.323Z,1.30
2018-09-28T14:06:15.712Z,1.70
2018-09-28T14:08:44.882Z,1.73
2018-09-28T14:11:14.089Z,2.03
2018-09-28T14:13:43.356Z,1.43
2018-09-28T14:16:12.710Z,1.63
2018-09-28T14:18:41.675Z,1.63
2018-09-28T14:21:10.624Z,1.07
2018-09-28T14:23:39.985Z,2.07
2018-09-28T14:26:09.251Z,1.27
2018-09-28T14:28:38.510Z,1.20
2018-09-28T14:31:07.449Z,1.73
2018-09-28T14:33:36.973Z,1.00
2018-09-28T14:36:06.187Z,0.93
2018-09-28T14:38:35.239Z,1.23
2018-09-28T14:41:04.197Z,1.20
2018-09-28T14:43:33.223Z,1.80
2018-09-28T14:46:02.214Z,1.00
2018-09-28T14:48:31.369Z,1.20
2018-09-28T14:51:00.426Z,1.53
2018-09-28T14:53:29.666Z,1.50
2018-09-28T14:55:58.700Z,1.10
2018-09-28T14:58:28.122Z,1.20
2018-09-28T15:00:57.241Z,1.80
2018-09-28T15:03:26.562Z,1.40
2018-09-28T15:05:55.624Z,1.23
2018-09-28T15:08:25.137Z,0.93
2018-09-28T15:10:54.178Z,1.20
2018-09-28T15:13:23.363Z,1.37
2018-09-28T15:15:53.151Z,1.00
2018-09-28T15:18:22.153Z,1.40
2018-09-28T15:20:51.206Z,1.40
2018-09-28T15:23:20.602Z,1.60
2018-09-28T15:25:49.632Z,1.27
2018-09-28T15:28:18.659Z,1.20
2018-09-28T15:30:47.641Z,1.73
2018-09-28T15:33:16.750Z,1.40
2018-09-28T15:35:45.776Z,1.00
2018-09-28T15:38:14.889Z,1.60
2018-09-28T15:40:43.906Z,1.20
2018-09-28T15:43:12.920Z,1.33
2018-09-28T15:45:42.156Z,1.27
2018-09-28T15:48:11.466Z,1.50
2018-09-28T15:50:40.859Z,1.00
2018-09-28T15:53:09.874Z,1.40
2018-09-28T15:55:38.928Z,0.90
2018-09-28T15:58:09.957Z,1.10
2018-09-28T16:00:39.854Z,1.40
2018-09-28T16:03:10.992Z,1.37
2018-09-28T16:05:40.489Z,1.17
2018-09-28T16:08:10.633Z,1.40
2018-09-28T16:10:40.211Z,1.60
2018-09-28T16:13:09.635Z,1.50
2018-09-28T16:15:41.436Z,1.73
2018-09-28T16:18:11.991Z,1.20
2018-09-28T16:20:41.558Z,1.47
2018-09-28T16:23:11.617Z,1.40
2018-09-28T16:25:40.862Z,1.60
2018-09-28T16:28:11.900Z,1.50
2018-09-28T16:30:41.682Z,1.30
2018-09-28T16:33:11.218Z,0.80
2018-09-28T16:35:40.905Z,1.10
2018-09-28T16:38:10.042Z,1.00
2018-09-28T16:40:39.918Z,1.40
2018-09-28T16:43:08.972Z,1.00
2018-09-28T16:45:37.986Z,0.90
2018-09-28T16:48:08.493Z,1.40
2018-09-28T16:50:38.170Z,1.40
2018-09-28T16:53:10.856Z,1.10
2018-09-28T16:55:40.696Z,1.37
2018-09-28T16:58:12.120Z,1.43
2018-09-28T17:00:42.195Z,1.00
2018-09-28T17:03:13.633Z,1.20
2018-09-28T17:05:44.554Z,1.20
2018-09-28T17:08:14.465Z,1.23
2018-09-28T17:10:44.244Z,1.27
2018-09-28T17:13:14.046Z,1.17
2018-09-28T17:15:44.014Z,1.60
2018-09-28T17:18:14.307Z,1.20
2018-09-28T17:20:44.240Z,1.03
2018-09-28T17:23:14.214Z,1.50
2018-09-28T17:25:44.705Z,1.00
2018-09-28T17:30:55.274Z,0.97
2018-09-28T17:33:25.344Z,1.00
2018-09-28T17:35:54.804Z,1.30
2018-09-28T17:38:26.053Z,1.10
2018-09-28T17:40:56.450Z,1.27
2018-09-28T17:43:25.714Z,1.27
2018-09-28T17:45:56.622Z,0.97
2018-09-28T17:48:25.700Z,1.70
2018-09-28T17:50:55.322Z,1.17
2018-09-28T17:53:25.902Z,1.40
2018-09-28T17:55:56.085Z,1.30
2018-09-28T17:58:25.182Z,1.77
2018-09-28T18:00:54.274Z,1.73
2018-09-28T18:03:24.210Z,1.10
2018-09-28T18:05:53.848Z,1.53
2018-09-28T18:08:22.842Z,1.77
2018-09-28T18:10:51.874Z,1.60
2018-09-28T18:13:21.139Z,1.90
2018-09-28T18:15:50.943Z,1.33
2018-09-28T18:18:20.253Z,1.80
2018-09-28T18:20:49.274Z,1.20
2018-09-28T18:23:18.605Z,1.83
2018-09-28T18:25:47.932Z,1.20
2018-09-28T18:28:17.213Z,1.77
2018-09-28T18:30:46.326Z,1.90
2018-09-28T18:33:15.466Z,1.83
2018-09-28T18:35:44.613Z,2.37
2018-09-28T18:38:13.611Z,1.80
2018-09-28T18:40:42.739Z,2.83
2018-09-28T18:43:12.034Z,2.07
2018-09-28T18:45:41.149Z,1.70
2018-09-28T18:48:10.090Z,2.23
2018-09-28T18:50:39.094Z,2.50
2018-09-28T18:53:08.258Z,2.13
2018-09-28T18:55:37.346Z,2.03
2018-09-28T18:58:06.607Z,1.73
2018-09-28T19:00:35.625Z,1.90
2018-09-28T19:03:04.720Z,2.43
2018-09-28T19:05:34.129Z,1.93
2018-09-28T19:08:03.178Z,2.17
2018-09-28T19:10:32.255Z,1.53
2018-09-28T19:13:01.304Z,2.17
2018-09-28T19:15:30.255Z,1.97
2018-09-28T19:18:00.213Z,1.60
2018-09-28T19:20:30.269Z,1.93
2018-09-28T19:23:00.798Z,1.80
2018-09-28T19:25:31.784Z,2.60
2018-09-28T19:28:02.593Z,2.90
2018-09-28T19:30:31.725Z,2.00
2018-09-28T19:33:06.101Z,1.47
2018-09-28T19:35:35.911Z,2.20
2018-09-28T19:38:06.516Z,1.50
2018-09-28T19:40:36.916Z,1.70
2018-09-28T19:43:06.745Z,1.87
2018-09-28T19:45:36.569Z,1.57
2018-09-28T19:48:07.460Z,1.30
2018-09-28T19:50:37.654Z,1.67
2018-09-28T19:53:08.339Z,1.43
2018-09-28T19:55:38.240Z,1.73
2018-09-28T19:58:08.371Z,1.53
2018-09-28T20:00:37.614Z,1.87
2018-09-28T20:03:08.016Z,2.17
2018-09-28T20:05:38.914Z,2.17
2018-09-28T20:08:08.426Z,1.77
2018-09-28T20:10:37.981Z,2.17
2018-09-28T20:13:07.688Z,1.77
2018-09-28T20:15:36.753Z,1.17
2018-09-28T20:18:06.027Z,1.63
2018-09-28T20:20:35.804Z,1.63
2018-09-28T20:23:06.559Z,1.33
2018-09-28T20:25:36.516Z,1.87
2018-09-28T20:28:06.042Z,2.00
2018-09-28T20:30:35.339Z,1.87
2018-09-28T20:33:11.497Z,1.70
2018-09-28T20:35:40.863Z,1.90
2018-09-28T20:38:10.132Z,1.83
2018-09-28T20:40:39.363Z,3.60
2018-09-28T20:43:08.630Z,2.70
2018-09-28T20:45:38.955Z,1.60
2018-09-28T20:48:10.508Z,2.30
2018-09-28T20:50:41.200Z,2.33
2018-09-28T20:53:10.259Z,1.80
2018-09-28T20:55:41.273Z,1.93
2018-09-28T20:58:11.675Z,2.57
2018-09-28T21:00:41.166Z,1.77
2018-09-28T21:03:11.712Z,1.93
2018-09-28T21:05:45.587Z,1.60
2018-09-28T21:08:16.610Z,1.93
2018-09-28T21:10:45.886Z,1.87
2018-09-28T21:13:14.966Z,2.23
2018-09-28T21:15:44.373Z,2.00
2018-09-28T21:18:14.711Z,5.60
2018-09-28T21:20:44.658Z,2.00
2018-09-28T21:23:14.470Z,2.27
2018-09-28T21:25:43.782Z,2.57
2018-09-28T21:28:14.498Z,1.57
2018-09-28T21:30:45.290Z,1.90
2018-09-28T21:33:14.358Z,2.07
2018-09-28T21:35:43.783Z,1.77
2018-09-28T21:38:13.666Z,1.60
2018-09-28T21:40:43.670Z,1.73
2018-09-28T21:43:14.288Z,2.50
2018-09-28T21:45:44.323Z,1.80
2018-09-28T21:48:13.329Z,3.17
2018-09-28T21:50:43.029Z,2.57
2018-09-28T21:53:12.092Z,2.57
2018-09-28T21:55:41.457Z,2.67
2018-09-28T21:58:10.488Z,2.27
2018-09-28T22:00:40.799Z,2.70
2018-09-28T22:03:11.008Z,2.87
2018-09-28T22:05:40.006Z,2.37
2018-09-28T22:08:09.308Z,2.40
2018-09-28T22:10:38.392Z,2.33
2018-09-28T22:13:07.732Z,2.30
2018-09-28T22:15:36.703Z,2.97
2018-09-28T22:18:05.984Z,2.70
2018-09-28T22:20:35.991Z,2.23
2018-09-28T22:23:05.441Z,2.57
2018-09-28T22:25:34.999Z,2.93
2018-09-28T22:28:04.658Z,2.47
2018-09-28T22:30:33.917Z,2.37
2018-09-28T22:33:03.542Z,3.07
2018-09-28T22:35:32.542Z,2.83
2018-09-28T22:38:01.612Z,1.90
2018-09-28T22:40:30.727Z,1.80
2018-09-28T22:42:59.687Z,3.80
2018-09-28T22:45:28.690Z,2.37
2018-09-28T22:47:57.740Z,2.10
2018-09-28T22:50:26.981Z,2.23
2018-09-28T22:52:56.034Z,1.90
2018-09-28T22:55:25.042Z,2.37
2018-09-28T22:57:54.321Z,2.33
2018-09-28T23:00:23.359Z,2.67
2018-09-28T23:02:52.381Z,2.90
2018-09-28T23:05:21.699Z,2.73
2018-09-28T23:07:51.618Z,2.10
2018-09-28T23:10:21.540Z,2.63
2018-09-28T23:12:51.542Z,2.77
2018-09-28T23:15:20.635Z,3.30
2018-09-28T23:17:49.804Z,2.60
2018-09-28T23:20:18.935Z,2.60
2018-09-28T23:22:47.991Z,2.00
2018-09-28T23:25:16.970Z,2.50
2018-09-28T23:27:46.207Z,2.10
2018-09-28T23:30:15.469Z,1.80
2018-09-28T23:32:44.967Z,2.27
2018-09-28T23:35:13.951Z,2.20
2018-09-28T23:37:43.186Z,2.50
2018-09-28T23:40:12.299Z,2.47
2018-09-28T23:42:41.663Z,2.60
2018-09-28T23:45:10.714Z,2.00
2018-09-28T23:47:39.895Z,2.37
2018-09-28T23:50:08.999Z,2.00
2018-09-28T23:52:38.197Z,1.80
2018-09-28T23:55:08.638Z,2.00
2018-09-28T23:57:38.091Z,2.10
